createdAt,value
2023-12-11T00:01:48.377Z,0.60
2023-12-11T00:04:19.211Z,0.80
2023-12-11T00:06:49.847Z,0.82
2023-12-11T00:09:22.737Z,0.50
2023-12-11T00:11:53.136Z,0.70
2023-12-11T00:14:23.530Z,0.85
2023-12-11T00:16:54.621Z,0.55
2023-12-11T00:19:24.990Z,0.60
2023-12-11T00:21:55.371Z,0.40
2023-12-11T00:24:28.308Z,0.57
2023-12-11T00:26:58.626Z,0.57
2023-12-11T00:29:28.869Z,0.50
2023-12-11T00:31:59.236Z,0.50
2023-12-11T00:34:29.633Z,0.70
2023-12-11T00:37:00.275Z,0.30
2023-12-11T00:39:33.296Z,0.40
2023-12-11T00:42:03.712Z,1.20
2023-12-11T00:44:34.061Z,0.50
2023-12-11T00:47:05.762Z,0.88
2023-12-11T00:49:36.290Z,0.60
2023-12-11T00:52:07.277Z,0.50
2023-12-11T00:54:40.090Z,0.60
2023-12-11T00:57:10.580Z,0.50
2023-12-11T00:59:40.893Z,0.47
2023-12-11T01:02:11.099Z,0.60
2023-12-11T01:04:41.359Z,0.70
2023-12-11T01:07:12.000Z,0.55
2023-12-11T01:09:45.272Z,0.85
2023-12-11T01:12:15.455Z,0.70
2023-12-11T01:14:45.562Z,0.50
2023-12-11T01:17:37.189Z,0.63
2023-12-11T01:20:06.513Z,0.57
2023-12-11T01:22:36.846Z,0.45
2023-12-11T01:25:10.569Z,0.63
2023-12-11T01:27:40.777Z,0.90
2023-12-11T01:30:11.846Z,0.50
2023-12-11T01:32:41.977Z,0.50
2023-12-11T01:35:12.611Z,0.40
2023-12-11T01:37:42.740Z,0.70
2023-12-11T01:40:16.143Z,0.55
2023-12-11T01:42:46.355Z,0.70
2023-12-11T01:45:16.618Z,0.73
2023-12-11T01:47:47.047Z,0.55
2023-12-11T01:50:18.002Z,0.70
2023-12-11T01:52:48.376Z,1.02
2023-12-11T01:55:21.206Z,0.90
2023-12-11T01:57:52.233Z,0.60
2023-12-11T02:00:24.247Z,0.63
2023-12-11T02:02:54.962Z,0.60
2023-12-11T02:05:25.107Z,0.50
2023-12-11T02:07:55.503Z,0.50
2023-12-11T02:10:28.351Z,0.70
2023-12-11T02:12:58.556Z,0.52
2023-12-11T02:15:41.490Z,0.93
2023-12-11T02:18:12.831Z,0.80
2023-12-11T02:20:44.433Z,0.73
2023-12-11T02:23:19.447Z,0.55
2023-12-11T02:26:01.322Z,0.68
2023-12-11T02:28:34.181Z,0.50
2023-12-11T02:31:04.362Z,0.50
2023-12-11T02:33:34.605Z,0.40
2023-12-11T02:36:05.090Z,0.63
2023-12-11T02:38:35.659Z,0.47
2023-12-11T02:41:06.249Z,0.40
2023-12-11T02:43:39.046Z,0.40
2023-12-11T02:46:09.386Z,0.50
2023-12-11T02:48:39.830Z,0.60
2023-12-11T02:51:10.707Z,0.80
2023-12-11T02:53:40.852Z,0.60
2023-12-11T02:56:12.327Z,0.50
2023-12-11T02:58:45.586Z,0.40
2023-12-11T03:01:16.944Z,0.55
2023-12-11T03:03:47.332Z,0.50
2023-12-11T03:06:22.222Z,0.32
2023-12-11T03:08:52.534Z,0.45
2023-12-11T03:11:22.607Z,0.77
2023-12-11T03:13:55.362Z,0.60
2023-12-11T03:16:25.447Z,0.43
2023-12-11T03:18:55.864Z,0.40
2023-12-11T03:21:26.212Z,0.40
2023-12-11T03:23:56.373Z,0.60
2023-12-11T03:26:26.445Z,0.43
2023-12-11T03:28:59.141Z,0.50
2023-12-11T03:31:29.319Z,0.40
2023-12-11T03:33:59.537Z,0.60
2023-12-11T03:36:29.721Z,0.40
2023-12-11T03:38:59.844Z,0.50
2023-12-11T03:41:29.944Z,0.77
2023-12-11T03:44:03.241Z,0.45
2023-12-11T03:46:33.338Z,0.57
2023-12-11T03:49:03.818Z,0.40
2023-12-11T03:51:34.036Z,0.40
2023-12-11T03:54:04.705Z,0.50
2023-12-11T03:56:34.877Z,0.50
2023-12-11T03:59:07.591Z,0.45
2023-12-11T04:01:37.877Z,0.47
2023-12-11T04:04:08.603Z,0.45
2023-12-11T04:06:39.083Z,0.35
2023-12-11T04:09:09.433Z,0.45
2023-12-11T04:11:39.696Z,0.40
2023-12-11T04:14:12.826Z,0.40
2023-12-11T04:16:45.737Z,0.50
2023-12-11T04:19:16.921Z,0.40
2023-12-11T04:21:48.106Z,0.60
2023-12-11T04:24:19.297Z,0.65
2023-12-11T04:26:49.605Z,0.80
2023-12-11T04:29:22.399Z,0.47
2023-12-11T04:31:52.616Z,0.80
2023-12-11T04:34:22.745Z,2.50
2023-12-11T04:36:52.958Z,4.55
2023-12-11T04:39:23.132Z,2.63
2023-12-11T04:41:53.319Z,0.65
2023-12-11T04:44:26.152Z,0.50
2023-12-11T04:46:56.671Z,0.80
2023-12-11T04:49:27.471Z,0.30
2023-12-11T04:51:58.565Z,0.30
2023-12-11T04:54:29.622Z,0.30
2023-12-11T04:57:00.462Z,0.60
2023-12-11T04:59:33.892Z,0.60
2023-12-11T05:02:04.312Z,0.50
2023-12-11T05:04:35.026Z,0.50
2023-12-11T05:07:05.858Z,0.82
2023-12-11T05:09:36.858Z,0.82
2023-12-11T05:12:08.126Z,0.85
2023-12-11T05:14:40.853Z,1.02
2023-12-11T05:17:11.151Z,0.68
2023-12-11T05:19:41.384Z,0.50
2023-12-11T05:22:11.624Z,0.70
2023-12-11T05:24:41.807Z,0.68
2023-12-11T05:27:13.309Z,0.80
2023-12-11T05:29:46.391Z,2.33
2023-12-11T05:32:16.769Z,0.90
2023-12-11T05:34:47.005Z,4.78
2023-12-11T05:37:17.198Z,1.55
2023-12-11T05:39:57.396Z,0.75
2023-12-11T05:42:37.752Z,0.60
2023-12-11T05:45:11.689Z,0.85
2023-12-11T05:47:41.806Z,1.10
2023-12-11T05:50:13.360Z,0.73
2023-12-11T05:52:43.503Z,0.82
2023-12-11T05:55:13.796Z,0.95
2023-12-11T05:57:46.313Z,0.80
2023-12-11T06:00:21.692Z,1.20
2023-12-11T06:02:51.957Z,0.90
2023-12-11T06:05:22.513Z,1.10
2023-12-11T06:07:52.650Z,1.15
2023-12-11T06:10:23.090Z,1.27
2023-12-11T06:12:53.471Z,1.38
2023-12-11T06:15:26.235Z,2.08
2023-12-11T06:17:56.459Z,1.45
2023-12-11T06:20:26.678Z,1.35
2023-12-11T06:22:56.817Z,0.88
2023-12-11T06:25:26.997Z,0.75
2023-12-11T06:27:57.576Z,1.13
2023-12-11T06:30:30.318Z,0.60
2023-12-11T06:33:00.510Z,0.70
2023-12-11T06:35:30.653Z,0.90
2023-12-11T06:38:00.795Z,0.90
2023-12-11T06:40:31.155Z,2.97
2023-12-11T06:43:01.361Z,3.90
2023-12-11T06:45:37.106Z,4.68
2023-12-11T06:48:09.317Z,1.70
2023-12-11T06:50:39.865Z,1.23
2023-12-11T06:53:10.035Z,1.08
2023-12-11T06:55:40.232Z,0.95
2023-12-11T06:58:10.455Z,1.10
2023-12-11T07:00:43.520Z,1.02
2023-12-11T07:03:13.827Z,1.00
2023-12-11T07:05:46.199Z,1.20
2023-12-11T07:08:16.478Z,0.88
2023-12-11T07:10:46.795Z,1.30
2023-12-11T07:13:17.100Z,0.90
2023-12-11T07:15:49.951Z,1.27
2023-12-11T07:18:20.335Z,1.60
2023-12-11T07:20:50.548Z,1.35
2023-12-11T07:23:20.649Z,1.15
2023-12-11T07:25:50.797Z,0.90
2023-12-11T07:28:21.026Z,1.33
2023-12-11T07:30:53.800Z,1.00
2023-12-11T07:33:23.951Z,1.30
2023-12-11T07:35:54.150Z,0.90
2023-12-11T07:38:26.293Z,1.23
2023-12-11T07:40:56.875Z,1.20
2023-12-11T07:43:27.076Z,1.15
2023-12-11T07:46:01.313Z,1.10
2023-12-11T07:48:32.570Z,1.17
2023-12-11T07:51:02.810Z,1.10
2023-12-11T07:53:33.188Z,1.20
2023-12-11T07:56:05.044Z,1.00
2023-12-11T07:58:35.176Z,1.15
2023-12-11T08:01:09.472Z,1.02
2023-12-11T08:03:40.606Z,1.02
2023-12-11T08:06:12.609Z,1.60
2023-12-11T08:08:44.849Z,1.10
2023-12-11T08:11:19.725Z,1.17
2023-12-11T08:16:22.956Z,0.98
2023-12-11T08:18:53.368Z,1.40
2023-12-11T08:21:24.397Z,1.20
2023-12-11T08:23:54.804Z,1.38
2023-12-11T08:26:25.464Z,1.23
2023-12-11T08:28:59.060Z,1.42
2023-12-11T08:31:33.024Z,1.30
2023-12-11T08:34:03.195Z,1.23
2023-12-11T08:36:33.380Z,1.10
2023-12-11T08:39:04.305Z,1.67
2023-12-11T08:41:34.766Z,1.42
2023-12-11T08:44:04.926Z,1.42
2023-12-11T08:46:38.086Z,1.30
2023-12-11T08:49:08.281Z,1.30
2023-12-11T08:51:38.536Z,1.30
2023-12-11T08:54:08.814Z,1.20
2023-12-11T08:56:39.098Z,1.40
2023-12-11T08:59:10.418Z,1.38
2023-12-11T09:01:43.264Z,0.82
2023-12-11T09:04:13.517Z,0.88
2023-12-11T09:06:43.735Z,1.00
2023-12-11T09:09:15.020Z,1.23
2023-12-11T09:11:45.305Z,1.20
2023-12-11T09:14:15.466Z,2.08
2023-12-11T09:16:48.392Z,1.23
2023-12-11T09:19:20.147Z,1.63
2023-12-11T09:21:51.942Z,1.20
2023-12-11T09:24:22.059Z,1.00
2023-12-11T09:26:52.214Z,0.90
2023-12-11T09:29:22.329Z,0.80
2023-12-11T09:31:55.627Z,0.93
2023-12-11T09:34:25.967Z,1.35
2023-12-11T09:36:56.423Z,1.05
2023-12-11T09:39:26.982Z,1.15
2023-12-11T09:41:58.474Z,1.02
2023-12-11T09:44:30.544Z,0.75
2023-12-11T09:47:09.349Z,1.20
2023-12-11T09:49:39.847Z,1.23
2023-12-11T09:52:11.333Z,1.40
2023-12-11T09:54:41.629Z,0.95
2023-12-11T09:57:14.939Z,0.85
2023-12-11T09:59:45.858Z,0.85
2023-12-11T10:02:20.164Z,1.15
2023-12-11T10:10:33.008Z,1.13
2023-12-11T10:13:04.142Z,1.40
2023-12-11T10:15:35.885Z,1.02
2023-12-11T10:18:11.332Z,1.08
2023-12-11T10:20:43.558Z,0.95
2023-12-11T10:23:20.169Z,1.17
2023-12-11T10:25:52.042Z,0.80
2023-12-11T10:28:24.049Z,0.70
2023-12-11T10:30:57.298Z,1.30
2023-12-11T10:33:32.621Z,1.02
2023-12-11T10:36:14.689Z,1.40
2023-12-11T10:38:44.990Z,1.90
2023-12-11T10:41:28.474Z,1.08
2023-12-11T10:44:08.737Z,1.13
2023-12-11T10:46:47.306Z,1.90
2023-12-11T10:49:21.183Z,1.00
2023-12-11T10:51:52.208Z,1.20
2023-12-11T10:54:22.337Z,1.20
2023-12-11T10:56:53.171Z,1.27
2023-12-11T10:59:23.396Z,1.17
2023-12-11T11:01:54.842Z,1.65
2023-12-11T11:04:28.684Z,1.08
2023-12-11T11:07:03.974Z,4.32
2023-12-11T11:09:38.931Z,1.15
2023-12-11T11:12:16.665Z,1.45
2023-12-11T11:14:51.258Z,1.27
2023-12-11T11:17:21.541Z,1.48
2023-12-11T11:20:19.191Z,1.20
2023-12-11T11:22:50.806Z,1.45
2023-12-11T11:25:38.594Z,2.33
2023-12-11T11:28:12.007Z,1.92
2023-12-11T11:30:57.087Z,1.17
2023-12-11T11:33:27.110Z,0.85
2023-12-11T11:36:00.472Z,1.38
2023-12-11T11:38:54.875Z,1.25
2023-12-11T11:41:26.351Z,1.60
2023-12-11T11:44:05.503Z,1.80
2023-12-11T11:46:51.490Z,1.42
2023-12-11T11:49:30.227Z,1.33
2023-12-11T11:52:03.340Z,1.15
2023-12-11T11:54:35.102Z,1.60
2023-12-11T11:57:05.238Z,1.33
2023-12-11T11:59:35.420Z,1.42
2023-12-11T12:02:05.455Z,1.80
2023-12-11T12:04:38.155Z,2.03
2023-12-11T12:07:10.829Z,1.35
2023-12-11T12:09:41.007Z,1.63
2023-12-11T12:12:18.278Z,2.05
2023-12-11T12:14:48.784Z,1.58
2023-12-11T12:17:19.140Z,1.60
2023-12-11T12:19:49.231Z,1.98
2023-12-11T12:22:21.866Z,1.92
2023-12-11T12:24:52.443Z,1.65
2023-12-11T12:27:24.675Z,1.90
2023-12-11T12:29:55.809Z,1.40
2023-12-11T12:32:26.754Z,1.77
2023-12-11T12:34:56.928Z,2.00
2023-12-11T12:37:30.511Z,1.90
2023-12-11T12:40:00.836Z,1.88
2023-12-11T12:42:33.419Z,1.73
2023-12-11T12:45:04.066Z,2.08
2023-12-11T12:47:35.244Z,2.33
2023-12-11T12:50:08.080Z,2.05
2023-12-11T12:52:41.522Z,1.95
2023-12-11T12:55:11.971Z,2.28
2023-12-11T12:57:43.234Z,2.60
2023-12-11T13:00:22.470Z,2.38
2023-12-11T13:02:53.068Z,2.08
2023-12-11T13:05:23.057Z,2.05
2023-12-11T13:08:04.467Z,2.58
2023-12-11T13:10:34.511Z,2.42
2023-12-11T13:13:12.931Z,1.83
2023-12-11T13:15:44.199Z,2.20
2023-12-11T13:18:18.195Z,2.05
2023-12-11T13:20:48.626Z,2.70
2023-12-11T13:23:22.204Z,2.67
2023-12-11T13:25:52.188Z,2.58
2023-12-11T13:28:22.287Z,2.33
2023-12-11T13:30:52.490Z,1.63
2023-12-11T13:33:22.656Z,2.30
2023-12-11T13:35:53.206Z,2.28
2023-12-11T13:38:25.930Z,2.50
2023-12-11T13:40:56.432Z,2.05
2023-12-11T13:43:26.589Z,2.50
2023-12-11T13:45:56.651Z,2.80
2023-12-11T13:48:28.933Z,2.20
2023-12-11T13:51:00.957Z,2.08
2023-12-11T13:53:33.701Z,1.73
2023-12-11T13:56:04.218Z,1.90
2023-12-11T13:58:34.243Z,1.85
2023-12-11T14:01:04.467Z,2.13
2023-12-11T14:03:34.479Z,2.90
2023-12-11T14:06:04.576Z,2.10
2023-12-11T14:08:37.166Z,1.70
2023-12-11T14:11:07.562Z,1.95
2023-12-11T14:13:37.717Z,2.42
2023-12-11T14:16:09.298Z,2.60
2023-12-11T14:18:42.453Z,2.47
2023-12-11T14:21:13.528Z,2.40
2023-12-11T14:23:46.353Z,3.47
2023-12-11T14:26:17.305Z,2.17
2023-12-11T14:28:47.360Z,2.60
2023-12-11T14:31:17.400Z,2.78
2023-12-11T14:33:47.462Z,2.65
2023-12-11T14:36:25.038Z,2.40
2023-12-11T14:38:59.737Z,2.53
2023-12-11T14:41:29.733Z,2.88
2023-12-11T14:43:59.748Z,2.45
2023-12-11T14:46:29.760Z,3.28
2023-12-11T14:48:59.782Z,3.47
2023-12-11T14:51:29.779Z,3.53
2023-12-11T14:54:02.976Z,3.35
2023-12-11T14:56:32.947Z,2.55
2023-12-11T14:59:02.901Z,2.60
2023-12-11T15:01:32.925Z,3.30
2023-12-11T15:04:03.232Z,2.78
2023-12-11T15:06:33.226Z,2.35
2023-12-11T15:09:07.800Z,3.00
2023-12-11T15:11:38.110Z,2.25
2023-12-11T15:14:09.680Z,2.60
2023-12-11T15:16:42.550Z,3.08
2023-12-11T15:19:12.787Z,2.53
2023-12-11T15:21:42.751Z,2.60
2023-12-11T15:24:15.397Z,2.78
2023-12-11T15:26:45.401Z,2.70
2023-12-11T15:29:15.496Z,2.22
2023-12-11T15:31:45.925Z,2.88
2023-12-11T15:34:16.016Z,3.38
2023-12-11T15:36:46.057Z,3.13
2023-12-11T15:39:18.597Z,3.08
2023-12-11T15:41:48.646Z,2.58
2023-12-11T15:44:19.024Z,3.17
2023-12-11T15:46:49.032Z,2.42
2023-12-11T15:49:19.616Z,3.03
2023-12-11T15:51:53.606Z,3.20
2023-12-11T15:54:26.479Z,2.92
2023-12-11T15:56:56.485Z,2.92
2023-12-11T15:59:28.833Z,2.15
2023-12-11T16:02:00.103Z,2.80
2023-12-11T16:04:30.229Z,2.60
2023-12-11T16:07:00.266Z,2.78
2023-12-11T16:09:32.861Z,2.92
2023-12-11T16:12:05.381Z,2.20
2023-12-11T16:14:35.425Z,2.75
2023-12-11T16:17:05.537Z,4.45
2023-12-11T16:19:35.548Z,2.63
2023-12-11T16:22:05.781Z,3.13
2023-12-11T16:24:38.482Z,2.58
2023-12-11T16:27:08.893Z,2.45
2023-12-11T16:29:38.947Z,2.75
2023-12-11T16:32:09.718Z,2.95
2023-12-11T16:34:39.914Z,2.95
2023-12-11T16:37:10.255Z,3.25
2023-12-11T16:39:45.088Z,3.28
2023-12-11T16:42:15.121Z,3.05
2023-12-11T16:44:45.158Z,3.35
2023-12-11T16:47:15.236Z,3.00
2023-12-11T16:49:52.328Z,3.30
2023-12-11T16:52:31.013Z,2.80
2023-12-11T16:55:03.878Z,3.05
2023-12-11T16:57:33.977Z,2.42
2023-12-11T17:00:04.346Z,2.72
2023-12-11T17:02:35.115Z,2.88
2023-12-11T17:05:05.983Z,2.75
2023-12-11T17:07:36.254Z,2.85
2023-12-11T17:10:09.866Z,3.00
2023-12-11T17:12:39.803Z,3.23
2023-12-11T17:15:12.141Z,2.42
2023-12-11T17:17:42.553Z,4.22
2023-12-11T17:20:13.590Z,2.75
2023-12-11T17:22:43.839Z,2.80
2023-12-11T17:25:16.748Z,3.00
2023-12-11T17:27:46.890Z,3.00
2023-12-11T17:30:17.739Z,3.25
2023-12-11T17:32:47.836Z,2.85
2023-12-11T17:35:18.522Z,2.80
2023-12-11T17:37:49.558Z,3.80
2023-12-11T17:40:22.260Z,2.70
2023-12-11T17:42:52.541Z,3.03
2023-12-11T17:45:25.752Z,3.30
2023-12-11T17:48:00.756Z,2.75
2023-12-11T17:50:30.933Z,3.78
2023-12-11T17:53:01.093Z,3.53
2023-12-11T17:55:33.771Z,3.22
2023-12-11T17:58:04.035Z,3.47
2023-12-11T18:00:34.045Z,3.90
2023-12-11T18:03:04.062Z,3.92
2023-12-11T18:05:35.388Z,3.97
2023-12-11T18:08:05.420Z,3.33
2023-12-11T18:10:38.162Z,4.00
2023-12-11T18:13:08.274Z,3.08
2023-12-11T18:15:38.296Z,3.33
2023-12-11T18:18:08.889Z,3.30
2023-12-11T18:20:39.076Z,2.78
2023-12-11T18:23:09.464Z,3.25
2023-12-11T18:25:42.017Z,3.10
2023-12-11T18:28:12.153Z,2.95
2023-12-11T18:30:42.127Z,3.42
2023-12-11T18:33:12.217Z,3.28
2023-12-11T18:35:42.221Z,3.53
2023-12-11T18:38:12.245Z,3.20
2023-12-11T18:40:45.175Z,3.42
2023-12-11T18:43:15.382Z,3.13
2023-12-11T18:45:45.501Z,3.47
2023-12-11T18:48:15.693Z,4.38
2023-12-11T18:50:45.817Z,4.18
2023-12-11T18:53:16.037Z,3.90
2023-12-11T18:56:01.506Z,4.07
2023-12-11T18:58:32.111Z,4.93
2023-12-11T19:01:03.269Z,3.58
2023-12-11T19:03:33.384Z,4.10
2023-12-11T19:06:03.381Z,4.20
2023-12-11T19:08:33.361Z,4.00
2023-12-11T19:11:07.419Z,3.60
2023-12-11T19:13:37.504Z,3.60
2023-12-11T19:16:09.358Z,3.33
2023-12-11T19:18:39.826Z,3.30
2023-12-11T19:21:10.199Z,3.25
2023-12-11T19:23:40.337Z,3.78
2023-12-11T19:26:13.164Z,2.60
2023-12-11T19:28:43.199Z,3.83
2023-12-11T19:31:13.415Z,3.47
2023-12-11T19:33:43.581Z,3.40
2023-12-11T19:36:14.414Z,3.90
2023-12-11T19:38:44.582Z,3.22
2023-12-11T19:41:17.431Z,3.67
2023-12-11T19:43:50.144Z,3.25
2023-12-11T19:46:20.351Z,3.80
2023-12-11T19:48:50.473Z,4.00
2023-12-11T19:51:20.604Z,3.72
2023-12-11T19:53:50.953Z,3.65
2023-12-11T19:56:26.963Z,3.30
2023-12-11T19:58:57.355Z,3.50
2023-12-11T20:01:30.944Z,4.30
2023-12-11T20:04:01.202Z,4.00
2023-12-11T20:06:32.403Z,3.75
2023-12-11T20:09:02.430Z,2.95
2023-12-11T20:11:35.060Z,3.03
2023-12-11T20:14:05.034Z,2.78
2023-12-11T20:16:35.103Z,3.20
2023-12-11T20:19:05.271Z,3.10
2023-12-11T20:21:35.612Z,2.95
2023-12-11T20:24:05.541Z,3.80
2023-12-11T20:26:38.086Z,2.90
2023-12-11T20:29:08.101Z,2.88
2023-12-11T20:31:38.075Z,3.10
2023-12-11T20:34:08.200Z,2.80
2023-12-11T20:36:38.389Z,3.03
2023-12-11T20:39:08.394Z,3.30
2023-12-11T20:41:40.951Z,3.08
2023-12-11T20:44:11.191Z,3.83
2023-12-11T20:46:41.210Z,3.03
2023-12-11T20:49:11.289Z,3.67
2023-12-11T20:51:45.586Z,3.55
2023-12-11T20:54:15.977Z,3.58
2023-12-11T20:56:48.560Z,3.88
2023-12-11T20:59:18.579Z,3.70
2023-12-11T21:01:49.962Z,3.33
2023-12-11T21:04:20.124Z,3.22
2023-12-11T21:06:50.310Z,2.88
2023-12-11T21:09:20.253Z,2.85
2023-12-11T21:11:52.868Z,4.13
2023-12-11T21:14:23.102Z,3.33
2023-12-11T21:16:53.368Z,2.80
2023-12-11T21:19:24.829Z,3.65
2023-12-11T21:21:55.854Z,3.08
2023-12-11T21:24:27.578Z,3.42
2023-12-11T21:27:01.432Z,3.33
2023-12-11T21:29:33.330Z,3.58
2023-12-11T21:32:05.922Z,3.05
2023-12-11T21:34:37.049Z,3.78
2023-12-11T21:37:08.400Z,3.38
2023-12-11T21:39:39.991Z,3.53
2023-12-11T21:42:13.270Z,3.17
2023-12-11T21:44:44.225Z,2.92
2023-12-11T21:47:15.228Z,3.35
2023-12-11T21:49:46.675Z,2.75
2023-12-11T21:52:17.824Z,3.28
2023-12-11T21:54:48.993Z,2.70
2023-12-11T21:57:22.725Z,3.10
2023-12-11T21:59:53.819Z,2.80
2023-12-11T22:02:25.196Z,3.05
2023-12-11T22:04:56.317Z,3.00
2023-12-11T22:07:27.475Z,3.20
2023-12-11T22:09:59.105Z,3.50
2023-12-11T22:12:33.015Z,3.67
2023-12-11T22:15:04.363Z,3.88
2023-12-11T22:17:35.704Z,2.95
2023-12-11T22:20:07.811Z,2.45
2023-12-11T22:22:39.108Z,3.92
2023-12-11T22:25:11.768Z,3.08
2023-12-11T22:27:46.497Z,3.40
2023-12-11T22:30:18.251Z,3.10
2023-12-11T22:32:49.276Z,3.08
2023-12-11T22:35:21.908Z,3.17
2023-12-11T22:37:53.230Z,2.88
2023-12-11T22:40:24.438Z,3.40
2023-12-11T22:42:58.233Z,2.47
2023-12-11T22:45:29.388Z,2.95
2023-12-11T22:48:00.865Z,3.08
2023-12-11T22:50:32.235Z,2.58
2023-12-11T22:53:03.300Z,2.67
2023-12-11T22:55:34.651Z,3.20
2023-12-11T22:58:15.652Z,2.92
2023-12-11T23:00:47.417Z,3.25
2023-12-11T23:03:17.494Z,3.17
2023-12-11T23:05:47.442Z,2.72
2023-12-11T23:08:17.425Z,2.60
2023-12-11T23:10:47.406Z,3.10
2023-12-11T23:13:20.255Z,3.15
2023-12-11T23:15:51.940Z,2.55
2023-12-11T23:18:22.119Z,3.22
2023-12-11T23:20:52.187Z,2.35
2023-12-11T23:23:22.107Z,2.35
2023-12-11T23:25:58.657Z,2.78
2023-12-11T23:28:36.884Z,2.42
2023-12-11T23:31:07.488Z,2.90
2023-12-11T23:33:37.973Z,2.70
2023-12-11T23:36:08.814Z,3.35
2023-12-11T23:38:38.862Z,2.90
2023-12-11T23:41:09.375Z,3.15
2023-12-11T23:43:41.916Z,3.40
2023-12-11T23:46:12.054Z,3.47
2023-12-11T23:48:42.165Z,3.63
2023-12-11T23:51:12.199Z,3.58
2023-12-11T23:53:43.916Z,2.97
2023-12-11T23:56:13.997Z,3.33
2023-12-11T23:58:46.626Z,3.25
